Time,TemperatureF,DewpointF,PressureIn,WindDirection,WindDirectionDegrees,WindSpeedMPH,WindSpeedGustMPH,Humidity,HourlyPrecipIn,Conditions,Clouds,dailyrainin,SolarRadiationWatts/m^2,SoftwareType,DateUTC
2013-02-03 00:00:00,55.9,45.5,30.17,NNW,337,6.9,6.9,68,0.00,CLR,,0.00,0.0,WeatherDisplay:10.37,2013-02-03 05:00:00,
2013-02-03 00:01:00,55.9,45.5,30.17,NW,313,6.9,6.9,68,0.00,CLR,,0.00,0.0,WeatherDisplay:10.37,2013-02-03 05:01:00,
2013-02-03 00:06:00,55.9,45.9,30.17,WNW,302,4.6,4.6,69,0.00,CLR,,0.00,0.0,WeatherDisplay:10.37,2013-02-03 05:06:00,
2013-02-03 00:33:00,55.7,45.7,30.16,NW,314,4.6,4.6,69,0.00,CLR,,0.00,0.0,WeatherDisplay:10.37,2013-02-03 05:33:00,
2013-02-03 00:43:00,55.9,45.9,30.16,NW,318,8.1,8.1,69,0.00,CLR,,0.00,0.0,WeatherDisplay:10.37,2013-02-03 05:43:00,
2013-02-03 00:56:00,56.0,46.0,30.16,NE,36,5.0,5.0,69,0.00,CLR,,0.00,0.0,WeatherDisplay:10.37,2013-02-03 05:56:00,
2013-02-03 01:00:00,55.4,45.8,30.15,NNW,332,3.4,3.4,70,0.00,CLR,,0.00,0.0,WeatherDisplay:10.37,2013-02-03 06:00:00,
2013-02-03 01:01:00,55.9,45.9,30.16,NW,313,5.8,5.8,69,0.00,CLR,,0.00,0.0,WeatherDisplay:10.37,2013-02-03 06:01:00,
2013-02-03 01:06:00,55.8,45.8,30.15,NW,316,3.4,3.4,69,0.00,CLR,,0.00,0.0,WeatherDisplay:10.37,2013-02-03 06:06:00,
2013-02-03 01:22:00,55.0,45.8,30.15,NNW,333,3.4,3.4,71,0.00,CLR,,0.00,0.0,WeatherDisplay:10.37,2013-02-03 06:22:00,
2013-02-03 01:35:00,54.6,45.4,30.14,NNW,339,3.4,3.4,71,0.00,CLR,,0.00,0.0,WeatherDisplay:10.37,2013-02-03 06:35:00,
2013-02-03 01:52:00,53.7,45.2,30.14,NNW,339,4.6,4.6,73,0.00,CLR,,0.00,0.0,WeatherDisplay:10.37,2013-02-03 06:52:00,
2013-02-03 01:57:00,53.5,45.4,30.14,NNW,340,3.4,3.4,74,0.00,CLR,,0.00,0.0,WeatherDisplay:10.37,2013-02-03 06:57:00,
2013-02-03 02:00:00,53.4,45.3,30.13,NNW,343,3.4,3.4,74,0.00,CLR,,0.00,0.0,WeatherDisplay:10.37,2013-02-03 07:00:00,
2013-02-03 02:02:00,53.4,45.3,30.13,NNW,330,3.4,3.4,74,0.00,CLR,,0.00,0.0,WeatherDisplay:10.37,2013-02-03 07:02:00,
2013-02-03 02:07:00,53.5,45.4,30.14,NNW,342,3.4,3.4,74,0.00,CLR,,0.00,0.0,WeatherDisplay:10.37,2013-02-03 07:07:00,
2013-02-03 02:23:00,52.0,45.0,30.13,NNW,343,0.0,0.7,77,0.00,CLR,,0.00,0.0,WeatherDisplay:10.37,2013-02-03 07:23:00,
2013-02-03 02:33:00,50.2,44.3,30.13,NNW,344,0.0,0.0,80,0.00,CLR,,0.00,0.0,WeatherDisplay:10.37,2013-02-03 07:33:00,
2013-02-03 02:39:00,49.3,44.4,30.13,NNW,343,1.1,1.1,83,0.00,CLR,,0.00,0.0,WeatherDisplay:10.37,2013-02-03 07:39:00,
2013-02-03 02:56:00,47.8,44.1,30.12,NNW,343,1.1,1.1,87,0.00,CLR,,0.00,0.0,WeatherDisplay:10.37,2013-02-03 07:56:00,
2013-02-03 03:00:00,46.8,43.4,30.13,NNW,343,0.0,0.0,88,0.00,CLR,,0.00,0.0,WeatherDisplay:10.37,2013-02-03 08:00:00,
2013-02-03 03:01:00,47.5,43.8,30.13,NNW,343,0.0,0.0,87,0.00,CLR,,0.00,0.0,WeatherDisplay:10.37,2013-02-03 08:01:00,
2013-02-03 03:06:00,47.1,43.7,30.13,NNW,344,0.0,0.0,88,0.00,CLR,,0.00,0.0,WeatherDisplay:10.37,2013-02-03 08:06:00,
2013-02-03 03:45:00,46.3,43.8,30.14,NNW,344,0.0,0.0,91,0.00,CLR,,0.00,0.0,WeatherDisplay:10.37,2013-02-03 08:45:00,
2013-02-03 03:56:00,46.2,43.7,30.14,NNE,18,1.1,1.1,91,0.00,CLR,,0.00,0.0,WeatherDisplay:10.37,2013-02-03 08:56:00,
2013-02-03 04:00:00,46.1,43.6,30.14,NNE,19,1.1,1.1,91,0.00,CLR,,0.00,0.0,WeatherDisplay:10.37,2013-02-03 09:00:00,
2013-02-03 04:01:00,46.3,43.8,30.14,NNE,18,2.3,2.3,91,0.00,CLR,,0.00,0.0,WeatherDisplay:10.37,2013-02-03 09:01:00,
2013-02-03 04:06:00,46.2,43.7,30.14,NNE,19,0.0,0.0,91,0.00,CLR,,0.00,0.0,WeatherDisplay:10.37,2013-02-03 09:06:00,
2013-02-03 04:19:00,45.8,43.3,30.14,NNE,19,1.1,1.1,91,0.00,CLR,,0.00,0.0,WeatherDisplay:10.37,2013-02-03 09:19:00,
2013-02-03 04:39:00,45.1,42.9,30.14,NE,42,2.3,2.3,92,0.00,CLR,,0.00,0.0,WeatherDisplay:10.37,2013-02-03 09:39:00,
2013-02-03 04:44:00,44.8,42.6,30.14,NE,42,2.3,2.3,92,0.00,CLR,,0.00,0.0,WeatherDisplay:10.37,2013-02-03 09:44:00,
2013-02-03 04:56:00,44.7,42.8,30.14,NE,42,0.0,0.0,93,0.00,CLR,,0.00,0.0,WeatherDisplay:10.37,2013-02-03 09:56:00,
2013-02-03 05:00:00,44.9,43.0,30.14,ENE,64,3.4,3.4,93,0.00,CLR,,0.00,0.0,WeatherDisplay:10.37,2013-02-03 10:00:00,
2013-02-03 05:01:00,44.7,42.8,30.14,NE,46,2.3,2.3,93,0.00,CLR,,0.00,0.0,WeatherDisplay:10.37,2013-02-03 10:01:00,
2013-02-03 05:06:00,44.9,43.0,30.14,ENE,63,1.1,1.1,93,0.00,CLR,,0.00,0.0,WeatherDisplay:10.37,2013-02-03 10:06:00,
2013-02-03 05:25:00,45.3,43.4,30.15,ENE,64,0.0,0.0,93,0.00,CLR,,0.00,0.0,WeatherDisplay:10.37,2013-02-03 10:25:00,
2013-02-03 05:41:00,45.0,43.1,30.15,ENE,64,0.0,0.0,93,0.00,CLR,,0.00,0.0,WeatherDisplay:10.37,2013-02-03 10:41:00,
2013-02-03 05:47:00,44.7,42.8,30.15,ENE,64,1.1,1.1,93,0.00,CLR,,0.00,0.0,WeatherDisplay:10.37,2013-02-03 10:47:00,
2013-02-03 05:56:00,44.7,43.1,30.15,ENE,64,0.0,0.0,94,0.00,CLR,,0.00,0.0,WeatherDisplay:10.37,2013-02-03 10:56:00,
2013-02-03 06:00:00,44.3,42.7,30.15,ENE,64,3.4,3.4,94,0.00,CLR,,0.00,0.0,WeatherDisplay:10.37,2013-02-03 11:00:00,
2013-02-03 06:01:00,44.5,42.6,30.15,ENE,64,1.1,1.1,93,0.00,CLR,,0.00,0.0,WeatherDisplay:10.37,2013-02-03 11:01:00,
2013-02-03 06:06:00,44.3,42.4,30.15,ENE,64,3.4,3.4,93,0.00,CLR,,0.00,0.0,WeatherDisplay:10.37,2013-02-03 11:06:00,
2013-02-03 06:18:00,44.8,43.2,30.16,ENE,64,1.1,0.0,94,0.00,CLR,,0.00,0.0,WeatherDisplay:10.37,2013-02-03 11:18:00,
2013-02-03 06:31:00,44.7,43.1,30.17,ENE,64,2.3,2.3,94,0.00,CLR,,0.00,0.0,WeatherDisplay:10.37,2013-02-03 11:31:00,
2013-02-03 06:36:00,44.5,42.9,30.17,ENE,64,1.1,1.1,94,0.00,CLR,,0.00,0.0,WeatherDisplay:10.37,2013-02-03 11:36:00,
2013-02-03 06:54:00,44.6,43.0,30.17,ENE,64,0.0,0.0,94,0.00,CLR,,0.00,0.0,WeatherDisplay:10.37,2013-02-03 11:54:00,
2013-02-03 06:59:00,44.6,43.0,30.17,ENE,64,1.0,1.0,94,0.00,CLR,,0.00,0.0,WeatherDisplay:10.37,2013-02-03 11:59:00,
2013-02-03 07:00:00,44.3,42.7,30.18,ENE,64,0.0,0.0,94,0.00,OVC,,0.00,0.0,WeatherDisplay:10.37,2013-02-03 12:00:00,
2013-02-03 07:04:00,44.4,42.8,30.17,ENE,64,1.1,0.0,94,0.00,OVC,,0.00,0.0,WeatherDisplay:10.37,2013-02-03 12:04:00,
2013-02-03 07:09:00,44.3,42.7,30.18,ENE,64,0.0,0.0,94,0.00,OVC,,0.00,0.0,WeatherDisplay:10.37,2013-02-03 12:09:00,
2013-02-03 07:15:00,44.3,42.7,30.18,ENE,64,0.0,0.0,94,0.00,OVC,,0.00,0.0,WeatherDisplay:10.37,2013-02-03 12:15:00,
2013-02-03 07:34:00,43.8,42.2,30.18,ENE,64,0.0,0.0,94,0.00,OVC,,0.00,14.0,WeatherDisplay:10.37,2013-02-03 12:34:00,
2013-02-03 07:44:00,44.2,42.9,30.18,ENE,64,1.1,1.1,95,0.00,OVC,,0.00,25.0,WeatherDisplay:10.37,2013-02-03 12:44:00,
2013-02-03 07:56:00,45.1,43.5,30.19,ENE,64,1.1,1.1,94,0.00,OVC,,0.00,47.0,WeatherDisplay:10.37,2013-02-03 12:56:00,
2013-02-03 08:00:00,46.1,44.2,30.19,ENE,64,2.3,2.3,93,0.00,OVC,,0.00,51.0,WeatherDisplay:10.37,2013-02-03 13:00:00,
2013-02-03 08:01:00,45.6,44.0,30.19,ENE,64,2.3,2.3,94,0.00,OVC,,0.00,56.0,WeatherDisplay:10.37,2013-02-03 13:01:00,
2013-02-03 08:06:00,45.9,44.0,30.19,ENE,64,1.1,1.2,93,0.00,OVC,,0.00,53.0,WeatherDisplay:10.37,2013-02-03 13:06:00,
2013-02-03 08:30:00,49.7,46.3,30.19,SSW,198,1.1,1.1,88,0.00,OVC,,0.00,95.0,WeatherDisplay:10.37,2013-02-03 13:30:00,
2013-02-03 08:40:00,50.9,47.5,30.19,SSW,198,1.1,1.1,88,0.00,OVC,,0.00,185.0,WeatherDisplay:10.37,2013-02-03 13:40:00,
2013-02-03 08:47:00,52.0,47.6,30.19,SSW,198,0.0,0.4,85,0.00,OVC,,0.00,211.0,WeatherDisplay:10.37,2013-02-03 13:47:00,
2013-02-03 08:55:00,53.4,48.0,30.19,SE,133,3.4,3.4,82,0.00,OVC,,0.00,197.0,WeatherDisplay:10.37,2013-02-03 13:55:00,
2013-02-03 09:00:00,54.1,48.4,30.19,SE,133,2.3,2.3,81,0.00,OVC,,0.00,218.0,WeatherDisplay:10.37,2013-02-03 14:00:00,
2013-02-03 09:05:00,54.8,48.7,30.19,SE,133,2.3,2.3,80,0.00,OVC,,0.00,253.0,WeatherDisplay:10.37,2013-02-03 14:05:00,
2013-02-03 09:19:00,56.5,49.7,30.19,East,101,2.3,2.3,78,0.00,BKN,,0.00,267.0,WeatherDisplay:10.37,2013-02-03 14:19:00,
2013-02-03 09:32:00,57.1,50.0,30.19,NNE,24,2.3,2.3,77,0.00,OVC,,0.00,253.0,WeatherDisplay:10.37,2013-02-03 14:32:00,
2013-02-03 09:49:00,59.5,51.6,30.19,NW,304,3.4,3.4,75,0.00,BKN,,0.00,417.0,WeatherDisplay:10.37,2013-02-03 14:49:00,
2013-02-03 09:56:00,60.3,52.3,30.19,NW,313,4.6,4.6,75,0.00,BKN,,0.00,383.0,WeatherDisplay:10.37,2013-02-03 14:56:00,
2013-02-03 10:00:00,62.2,53.4,30.19,North,5,5.0,5.0,73,0.00,BKN,,0.00,454.0,WeatherDisplay:10.37,2013-02-03 15:00:00,
2013-02-03 10:01:00,61.2,52.8,30.19,NW,326,3.4,3.4,74,0.00,OVC,,0.00,304.0,WeatherDisplay:10.37,2013-02-03 15:01:00,
2013-02-03 10:06:00,61.8,53.4,30.19,NNW,344,4.0,4.0,74,0.00,BKN,,0.00,413.0,WeatherDisplay:10.37,2013-02-03 15:06:00,
2013-02-03 10:23:00,62.9,53.7,30.19,WNW,298,10.3,10.3,72,0.00,BKN,,0.00,513.0,WeatherDisplay:10.37,2013-02-03 15:23:00,
2013-02-03 10:34:00,63.1,53.5,30.19,NW,311,10.3,10.3,71,0.00,BKN,,0.00,515.0,WeatherDisplay:10.37,2013-02-03 15:34:00,
2013-02-03 10:42:00,64.0,54.4,30.19,North,5,8.1,8.1,71,0.00,SCT,,0.00,587.0,WeatherDisplay:10.37,2013-02-03 15:42:00,
2013-02-03 10:49:00,64.2,54.2,30.19,NNW,333,5.8,5.8,70,0.00,SCT,,0.00,594.0,WeatherDisplay:10.37,2013-02-03 15:49:00,
2013-02-03 10:56:00,64.8,54.8,30.18,North,5,7.0,7.0,70,0.00,SCT,,0.00,603.0,WeatherDisplay:10.37,2013-02-03 15:56:00,
2013-02-03 11:00:00,64.6,54.6,30.18,NW,311,8.1,8.1,70,0.00,SCT,,0.00,647.0,WeatherDisplay:10.37,2013-02-03 16:00:00,
2013-02-03 11:01:00,64.4,54.0,30.18,NNW,336,6.9,6.9,69,0.00,SCT,,0.00,615.0,WeatherDisplay:10.37,2013-02-03 16:01:00,
2013-02-03 11:06:00,64.7,53.9,30.18,NNW,342,9.2,9.2,68,0.00,SCT,,0.00,649.0,WeatherDisplay:10.37,2013-02-03 16:06:00,
2013-02-03 11:14:00,65.1,53.9,30.18,NNW,342,10.3,10.3,67,0.00,SCT,,0.00,649.0,WeatherDisplay:10.37,2013-02-03 16:14:00,
2013-02-03 11:25:00,65.2,54.4,30.18,NW,324,9.0,9.0,68,0.00,BKN,,0.00,564.0,WeatherDisplay:10.37,2013-02-03 16:25:00,
2013-02-03 11:32:00,65.3,54.5,30.18,WNW,296,7.0,7.0,68,0.00,BKN,,0.00,548.0,WeatherDisplay:10.37,2013-02-03 16:32:00,
2013-02-03 11:40:00,65.0,54.2,30.18,NW,323,8.1,8.1,68,0.00,BKN,,0.00,555.0,WeatherDisplay:10.37,2013-02-03 16:40:00,
2013-02-03 11:45:00,65.0,54.2,30.18,NNW,331,6.9,6.9,68,0.00,SCT,,0.00,652.0,WeatherDisplay:10.37,2013-02-03 16:45:00,
2013-02-03 11:52:00,65.2,54.4,30.18,West,279,11.5,11.5,68,0.00,BKN,,0.00,559.0,WeatherDisplay:10.37,2013-02-03 16:52:00,
2013-02-03 11:57:00,65.2,54.0,30.17,NW,315,9.2,9.2,67,0.00,BKN,,0.00,661.0,WeatherDisplay:10.37,2013-02-03 16:57:00,
2013-02-03 12:00:00,65.9,54.6,30.17,NW,326,7.0,7.0,67,0.00,SCT,,0.00,696.0,WeatherDisplay:10.37,2013-02-03 17:00:00,
2013-02-03 12:02:00,65.6,53.5,30.17,NW,310,11.5,11.5,65,0.00,SCT,,0.00,649.0,WeatherDisplay:10.37,2013-02-03 17:02:00,
2013-02-03 12:07:00,65.4,53.7,30.17,NW,325,10.3,10.3,66,0.00,SCT,,0.00,731.0,WeatherDisplay:10.37,2013-02-03 17:07:00,
2013-02-03 12:19:00,65.8,54.1,30.16,WNW,291,11.5,11.5,66,0.00,SCT,,0.00,724.0,WeatherDisplay:10.37,2013-02-03 17:19:00,
2013-02-03 12:45:00,65.4,55.0,30.15,North,355,10.3,10.3,69,0.00,SCT,,0.00,710.0,WeatherDisplay:10.37,2013-02-03 17:45:00,
2013-02-03 12:56:00,65.0,55.0,30.15,WNW,295,9.2,9.2,70,0.00,SCT,,0.00,747.0,WeatherDisplay:10.37,2013-02-03 17:56:00,
2013-02-03 13:00:00,65.7,56.0,30.14,West,274,11.5,11.5,71,0.00,SCT,,0.00,712.0,WeatherDisplay:10.37,2013-02-03 18:00:00,
2013-02-03 13:01:00,65.2,55.6,30.14,West,265,11.5,11.5,71,0.00,SCT,,0.00,686.0,WeatherDisplay:10.37,2013-02-03 18:01:00,
2013-02-03 13:06:00,65.7,55.6,30.14,North,360,11.5,11.5,70,0.00,SCT,,0.00,737.0,WeatherDisplay:10.37,2013-02-03 18:06:00,
2013-02-03 13:13:00,65.9,55.8,30.14,West,267,11.5,11.5,70,0.00,SCT,,0.00,744.0,WeatherDisplay:10.37,2013-02-03 18:13:00,
2013-02-03 13:30:00,66.1,55.6,30.13,NW,311,11.5,11.5,69,0.00,SCT,,0.00,721.0,WeatherDisplay:10.37,2013-02-03 18:30:00,
2013-02-03 13:41:00,66.2,54.9,30.12,NW,313,10.3,10.3,67,0.00,SCT,,0.00,729.0,WeatherDisplay:10.37,2013-02-03 18:41:00,
2013-02-03 13:56:00,65.8,55.3,30.12,WNW,290,10.0,10.0,69,0.00,SCT,,0.00,722.0,WeatherDisplay:10.37,2013-02-03 18:56:00,
2013-02-03 14:00:00,65.9,55.4,30.12,WNW,300,8.1,8.1,69,0.00,SCT,,0.00,649.0,WeatherDisplay:10.37,2013-02-03 19:00:00,
2013-02-03 14:01:00,66.2,55.3,30.12,NW,318,8.1,8.1,68,0.00,SCT,,0.00,705.0,WeatherDisplay:10.37,2013-02-03 19:01:00,
2013-02-03 14:06:00,66.2,55.3,30.12,WNW,287,8.1,8.1,68,0.00,SCT,,0.00,679.0,WeatherDisplay:10.37,2013-02-03 19:06:00,
2013-02-03 14:17:00,65.5,55.1,30.12,NW,311,10.3,10.3,69,0.00,SCT,,0.00,708.0,WeatherDisplay:10.37,2013-02-03 19:17:00,
2013-02-03 14:40:00,65.2,55.2,30.11,NW,321,6.9,6.9,70,0.00,SCT,,0.00,531.0,WeatherDisplay:10.37,2013-02-03 19:40:00,
2013-02-03 14:56:00,65.9,55.4,30.10,WNW,290,8.1,8.1,69,0.00,SCT,,0.00,584.0,WeatherDisplay:10.37,2013-02-03 19:56:00,
2013-02-03 15:00:00,65.8,55.3,30.11,WSW,247,5.8,5.8,69,0.00,SCT,,0.00,487.0,WeatherDisplay:10.37,2013-02-03 20:00:00,
2013-02-03 15:01:00,65.9,55.4,30.10,West,270,5.8,5.8,69,0.00,SCT,,0.00,552.0,WeatherDisplay:10.37,2013-02-03 20:01:00,
2013-02-03 15:06:00,65.9,55.4,30.11,WNW,292,8.1,8.1,69,0.00,SCT,,0.00,424.0,WeatherDisplay:10.37,2013-02-03 20:06:00,
2013-02-03 15:16:00,65.2,54.8,30.10,NNW,336,6.9,6.9,69,0.00,BKN,,0.00,369.0,WeatherDisplay:10.37,2013-02-03 20:16:00,
2013-02-03 15:52:00,64.5,56.0,30.10,WNW,300,8.1,8.1,74,0.00,FEW,,0.00,487.0,WeatherDisplay:10.37,2013-02-03 20:52:00,
2013-02-03 15:57:00,63.8,56.1,30.10,NW,319,8.1,8.1,76,0.00,FEW,,0.00,478.0,WeatherDisplay:10.37,2013-02-03 20:57:00,
2013-02-03 16:00:00,63.2,56.2,30.10,West,281,10.3,10.3,78,0.00,FEW,,0.00,443.0,WeatherDisplay:10.37,2013-02-03 21:00:00,
2013-02-03 16:02:00,63.9,56.5,30.10,NW,325,6.9,6.9,77,0.00,SCT,,0.00,352.0,WeatherDisplay:10.37,2013-02-03 21:02:00,
2013-02-03 16:07:00,63.7,56.4,30.10,NW,313,9.2,9.2,77,0.00,FEW,,0.00,420.0,WeatherDisplay:10.37,2013-02-03 21:07:00,
2013-02-03 16:56:00,61.6,55.0,30.10,NNW,337,10.3,10.3,79,0.00,CLR,,0.00,258.0,WeatherDisplay:10.37,2013-02-03 21:56:00,
2013-02-03 17:00:00,61.3,55.1,30.10,WNW,284,5.8,5.8,80,0.00,FEW,,0.00,200.0,WeatherDisplay:10.37,2013-02-03 22:00:00,
2013-02-03 17:01:00,61.5,54.9,30.10,WNW,302,6.9,6.9,79,0.00,CLR,,0.00,237.0,WeatherDisplay:10.37,2013-02-03 22:01:00,
2013-02-03 17:06:00,61.2,54.6,30.10,NW,317,6.9,6.9,79,0.00,FEW,,0.00,214.0,WeatherDisplay:10.37,2013-02-03 22:06:00,
2013-02-03 17:22:00,60.7,54.5,30.10,WNW,296,5.8,5.8,80,0.00,FEW,,0.00,148.0,WeatherDisplay:10.37,2013-02-03 22:22:00,
2013-02-03 17:40:00,60.1,54.6,30.10,NW,306,4.0,4.0,82,0.00,SCT,,0.00,79.0,WeatherDisplay:10.37,2013-02-03 22:40:00,
2013-02-03 17:55:00,59.4,53.9,30.10,NW,313,6.9,6.9,82,0.00,OVC,,0.00,18.0,WeatherDisplay:10.37,2013-02-03 22:55:00,
2013-02-03 18:00:00,59.1,53.6,30.10,WNW,287,5.8,5.8,82,0.00,OVC,,0.00,12.0,WeatherDisplay:10.37,2013-02-03 23:00:00,
2013-02-03 18:05:00,58.9,53.4,30.10,WNW,294,6.9,6.9,82,0.00,OVC,,0.00,9.0,WeatherDisplay:10.37,2013-02-03 23:05:00,
2013-02-03 18:34:00,57.6,52.5,30.10,WNW,298,2.3,2.3,83,0.00,OVC,,0.00,0.0,WeatherDisplay:10.37,2013-02-03 23:34:00,
2013-02-03 18:56:00,56.3,52.2,30.10,WNW,298,2.3,2.3,86,0.00,CLR,,0.00,0.0,WeatherDisplay:10.37,2013-02-03 23:56:00,
2013-02-03 19:00:00,55.7,51.9,30.10,WNW,298,2.3,2.3,87,0.00,CLR,,0.00,0.0,WeatherDisplay:10.37,2013-02-04 00:00:00,
2013-02-03 19:01:00,56.0,51.9,30.10,WNW,298,0.0,0.0,86,0.00,CLR,,0.00,0.0,WeatherDisplay:10.37,2013-02-04 00:01:00,
2013-02-03 19:06:00,55.8,51.7,30.10,WNW,298,0.0,0.0,86,0.00,CLR,,0.00,0.0,WeatherDisplay:10.37,2013-02-04 00:06:00,
2013-02-03 19:16:00,55.5,51.7,30.10,WNW,298,2.3,2.3,87,0.00,CLR,,0.00,0.0,WeatherDisplay:10.37,2013-02-04 00:16:00,
2013-02-03 19:24:00,55.1,51.6,30.10,WNW,298,1.1,1.1,88,0.00,CLR,,0.00,0.0,WeatherDisplay:10.37,2013-02-04 00:24:00,
2013-02-03 19:42:00,54.4,50.9,30.11,WNW,298,0.0,0.0,88,0.00,CLR,,0.00,0.0,WeatherDisplay:10.37,2013-02-04 00:42:00,
2013-02-03 19:56:00,53.4,50.5,30.11,WNW,298,0.0,0.0,90,0.00,CLR,,0.00,0.0,WeatherDisplay:10.37,2013-02-04 00:56:00,
2013-02-03 20:00:00,53.3,50.4,30.11,WNW,298,1.1,1.1,90,0.00,CLR,,0.00,0.0,WeatherDisplay:10.37,2013-02-04 01:00:00,
2013-02-03 20:01:00,53.2,50.3,30.11,WNW,298,0.0,0.0,90,0.00,CLR,,0.00,0.0,WeatherDisplay:10.37,2013-02-04 01:01:00,
2013-02-03 20:06:00,53.2,50.3,30.11,WNW,298,0.0,0.0,90,0.00,CLR,,0.00,0.0,WeatherDisplay:10.37,2013-02-04 01:06:00,
2013-02-03 20:30:00,52.6,49.4,30.12,WNW,298,1.1,1.1,89,0.00,CLR,,0.00,0.0,WeatherDisplay:10.37,2013-02-04 01:30:00,
2013-02-03 20:46:00,52.0,48.9,30.12,WNW,298,0.0,0.0,89,0.00,CLR,,0.00,0.0,WeatherDisplay:10.37,2013-02-04 01:46:00,
2013-02-03 20:56:00,51.5,48.4,30.12,WNW,298,2.3,2.3,89,0.00,CLR,,0.00,0.0,WeatherDisplay:10.37,2013-02-04 01:56:00,
2013-02-03 21:00:00,51.7,47.6,30.12,WNW,298,1.1,1.1,86,0.00,CLR,,0.00,0.0,WeatherDisplay:10.37,2013-02-04 02:00:00,
2013-02-03 21:01:00,51.5,48.1,30.12,WNW,298,1.1,0.0,88,0.00,CLR,,0.00,0.0,WeatherDisplay:10.37,2013-02-04 02:01:00,
2013-02-03 21:06:00,51.5,47.8,30.12,WNW,298,1.1,1.1,87,0.00,CLR,,0.00,0.0,WeatherDisplay:10.37,2013-02-04 02:06:00,
2013-02-03 21:23:00,51.2,46.2,30.12,WNW,298,0.0,0.0,83,0.00,CLR,,0.00,0.0,WeatherDisplay:10.37,2013-02-04 02:23:00,
2013-02-03 21:33:00,50.7,45.7,30.12,WNW,298,0.0,0.0,83,0.00,CLR,,0.00,0.0,WeatherDisplay:10.37,2013-02-04 02:33:00,
2013-02-03 21:49:00,49.2,45.2,30.12,WNW,298,0.0,0.0,86,0.00,CLR,,0.00,0.0,WeatherDisplay:10.37,2013-02-04 02:49:00,
2013-02-03 21:56:00,49.0,45.3,30.12,WNW,298,0.0,0.0,87,0.00,CLR,,0.00,0.0,WeatherDisplay:10.37,2013-02-04 02:56:00,
2013-02-03 22:00:00,49.3,44.7,30.13,WNW,298,2.3,0.0,84,0.00,CLR,,0.00,0.0,WeatherDisplay:10.37,2013-02-04 03:00:00,
2013-02-03 22:01:00,49.0,45.0,30.12,WNW,298,0.0,0.5,86,0.00,CLR,,0.00,0.0,WeatherDisplay:10.37,2013-02-04 03:01:00,
2013-02-03 22:06:00,49.1,44.8,30.12,WNW,298,1.1,1.1,85,0.00,CLR,,0.00,0.0,WeatherDisplay:10.37,2013-02-04 03:06:00,
2013-02-03 22:14:00,49.7,44.7,30.13,WNW,298,1.1,1.1,83,0.00,CLR,,0.00,0.0,WeatherDisplay:10.37,2013-02-04 03:14:00,
2013-02-03 22:26:00,50.5,44.6,30.13,WNW,298,0.0,0.2,80,0.00,CLR,,0.00,0.0,WeatherDisplay:10.37,2013-02-04 03:26:00,
2013-02-03 22:33:00,50.7,44.4,30.12,WNW,298,2.3,2.3,79,0.00,CLR,,0.00,0.0,WeatherDisplay:10.37,2013-02-04 03:33:00,
2013-02-03 22:52:00,48.3,43.7,30.12,WNW,298,0.0,0.0,84,0.00,CLR,,0.00,0.0,WeatherDisplay:10.37,2013-02-04 03:52:00,
2013-02-03 22:57:00,48.2,43.9,30.12,WNW,298,0.0,0.0,85,0.00,CLR,,0.00,0.0,WeatherDisplay:10.37,2013-02-04 03:57:00,
2013-02-03 23:00:00,48.1,44.1,30.12,WNW,298,1.1,1.1,86,0.00,CLR,,0.00,0.0,WeatherDisplay:10.37,2013-02-04 04:00:00,
2013-02-03 23:02:00,48.3,44.0,30.12,WNW,298,1.1,1.1,85,0.00,CLR,,0.00,0.0,WeatherDisplay:10.37,2013-02-04 04:02:00,
2013-02-03 23:07:00,48.1,43.8,30.12,WNW,298,0.0,0.0,85,0.00,CLR,,0.00,0.0,WeatherDisplay:10.37,2013-02-04 04:07:00,
2013-02-03 23:20:00,48.3,44.3,30.11,WNW,298,1.1,0.0,86,0.00,CLR,,0.00,0.0,WeatherDisplay:10.37,2013-02-04 04:20:00,
2013-02-03 23:36:00,50.5,44.9,30.12,WNW,298,3.4,3.4,81,0.00,CLR,,0.00,0.0,WeatherDisplay:10.37,2013-02-04 04:36:00,
2013-02-03 23:41:00,51.7,45.4,30.11,WNW,298,3.4,3.4,79,0.00,CLR,,0.00,0.0,WeatherDisplay:10.37,2013-02-04 04:41:00,
2013-02-03 23:46:00,51.8,45.2,30.11,WNW,298,4.6,4.6,78,0.00,CLR,,0.00,0.0,WeatherDisplay:10.37,2013-02-04 04:46:00,
2013-02-03 23:56:00,52.6,45.2,30.11,WNW,298,2.3,2.3,76,0.00,CLR,,0.00,0.0,WeatherDisplay:10.37,2013-02-04 04:56:00,